Weather at Cuthbert-Randolph Airport

Public forecast

Using degrees Fahrenheit for public forecast. Weather courtesy of forecast.io.

Closest aviation weather report (METAR) to Cuthbert-Randolph Airport

Closest report is Early County Airport, 18.5 nm (34.3 km) S. Retrieved 2020/12/01 07:35 UTC (17 minutes ago):

KBIJ 010735Z AUTO 28005KT 10SM CLR 00/M05 A3017 RMK AO2

Closest aviation forecast (TAF) to Cuthbert-Randolph Airport

Closest forecast is Southwest Georgia Regional Airport, 33.7 nm (62.4 km) ESE. Retrieved 2020/12/01 06:30 UTC (1 hour ago):

TAF KABY 010528Z 0106/0206 29011KT P6SM BKN060 FM020000 VRB02KT P6SM SKC